Time;durP1;ratioP1;P1;durP2;ratioP2;P2;SDS_P1;SDS_P2;PMS_P1;PMS_P2;Temp;Humidity;BMP_temperature;BMP_pressure;BME280_temperature;BME280_humidity;BME280_pressure;Samples;Min_cycle;Max_cycle;Signal;HPM_P1;HPM_P2
2022/02/26 00:00:53;;;;;;;1.70;1.00;;;8.00;99.90;;;;;;6332165;22;20177;-92
2022/02/26 00:03:24;;;;;;;1.30;1.07;;;7.90;99.90;;;;;;6305502;22;20186;-92
2022/02/26 00:08:32;;;;;;;2.23;1.00;;;8.00;99.90;;;;;;6322152;22;20198;-93
2022/02/26 00:11:07;;;;;;;1.60;0.90;;;7.90;99.90;;;;;;6329186;22;20181;-92
2022/02/26 00:13:40;;;;;;;2.60;1.10;;;7.80;99.90;;;;;;6329394;22;20189;-92
2022/02/26 00:16:16;;;;;;;1.80;1.00;;;7.70;99.90;;;;;;6331475;22;20161;-92
2022/02/26 00:18:48;;;;;;;2.40;1.10;;;7.60;99.90;;;;;;6326312;22;20194;-93
2022/02/26 00:21:19;;;;;;;0.90;0.83;;;7.50;99.90;;;;;;6326391;22;20170;-93
2022/02/26 00:23:51;;;;;;;1.10;1.00;;;7.50;99.90;;;;;;6325511;22;20200;-93
2022/02/26 00:26:27;;;;;;;0.77;0.77;;;7.50;99.90;;;;;;6297465;22;20185;-93
2022/02/26 00:28:58;;;;;;;2.00;1.07;;;7.50;99.90;;;;;;6294917;22;20197;-93
2022/02/26 00:31:30;;;;;;;1.17;0.90;;;7.40;99.90;;;;;;6318381;22;20218;-92
2022/02/26 00:34:02;;;;;;;2.43;1.10;;;7.40;99.90;;;;;;6297967;22;20167;-93
2022/02/26 00:36:37;;;;;;;1.50;1.00;;;7.20;99.90;;;;;;6299414;22;20166;-92
2022/02/26 00:39:08;;;;;;;2.13;1.30;;;7.10;99.90;;;;;;6317825;22;20199;-92
2022/02/26 00:41:41;;;;;;;1.83;1.40;;;7.10;99.90;;;;;;6291916;22;20167;-92
2022/02/26 00:44:12;;;;;;;2.00;1.10;;;7.10;99.90;;;;;;6324931;22;20175;-92
2022/02/26 00:46:45;;;;;;;2.60;1.40;;;7.00;99.90;;;;;;6327324;22;20174;-91
2022/02/26 00:52:06;;;;;;;2.67;0.97;;;6.90;99.90;;;;;;6323843;22;20174;-92
2022/02/26 00:54:37;;;;;;;2.43;1.10;;;6.80;99.90;;;;;;6322917;22;20177;-92
2022/02/26 00:57:11;;;;;;;1.70;1.20;;;6.70;99.90;;;;;;6326262;22;20177;-92
2022/02/26 00:59:43;;;;;;;2.70;1.20;;;6.70;99.90;;;;;;6327571;22;20197;-93
2022/02/26 01:02:17;;;;;;;1.30;1.13;;;6.60;99.90;;;;;;6326011;22;20170;-92
2022/02/26 01:04:51;;;;;;;2.07;1.50;;;6.50;99.90;;;;;;6320268;22;20194;-92
2022/02/26 01:07:23;;;;;;;1.80;1.23;;;6.40;99.90;;;;;;6327664;22;20185;-93
2022/02/26 01:09:55;;;;;;;1.50;1.33;;;6.40;99.90;;;;;;6328513;22;20204;-93
2022/02/26 01:12:30;;;;;;;5.17;1.40;;;6.40;99.90;;;;;;6328732;22;20161;-93
2022/02/26 01:15:03;;;;;;;1.33;1.13;;;6.20;99.90;;;;;;6329384;22;20176;-92
2022/02/26 01:17:34;;;;;;;2.10;1.40;;;6.20;99.90;;;;;;6332651;22;20165;-90
2022/02/26 01:20:07;;;;;;;1.67;1.40;;;6.10;99.90;;;;;;6333457;22;20232;-91
2022/02/26 01:22:38;;;;;;;1.93;1.30;;;5.90;99.90;;;;;;6333668;22;20221;-93
2022/02/26 01:25:10;;;;;;;2.07;1.43;;;5.90;99.90;;;;;;6325337;22;20170;-93
2022/02/26 01:27:42;;;;;;;2.00;1.40;;;5.80;99.90;;;;;;6330641;22;20167;-92
2022/02/26 01:30:14;;;;;;;1.97;1.40;;;5.60;99.90;;;;;;6333412;22;20168;-91
2022/02/26 01:32:45;;;;;;;2.80;1.37;;;5.60;99.90;;;;;;6333820;22;20170;-91
2022/02/26 01:35:17;;;;;;;2.63;1.57;;;5.50;99.90;;;;;;6330736;22;20174;-92
2022/02/26 01:37:48;;;;;;;2.20;1.50;;;5.40;99.90;;;;;;6302172;22;20182;-91
2022/02/26 01:40:19;;;;;;;2.97;2.07;;;5.30;99.90;;;;;;6320052;22;20194;-91
2022/02/26 01:42:52;;;;;;;4.73;1.70;;;5.20;99.90;;;;;;6315464;22;20182;-92
2022/02/26 01:45:23;;;;;;;2.57;1.80;;;5.20;99.90;;;;;;6313922;22;20166;-92
2022/02/26 01:47:55;;;;;;;2.07;1.60;;;5.10;99.90;;;;;;6312922;22;20166;-91
2022/02/26 01:50:26;;;;;;;2.80;1.50;;;4.90;99.90;;;;;;6313353;22;20198;-92
2022/02/26 01:52:59;;;;;;;2.20;1.50;;;4.90;99.90;;;;;;6313094;22;20200;-92
2022/02/26 01:55:30;;;;;;;3.20;1.80;;;4.70;99.90;;;;;;6313688;22;20193;-92
2022/02/26 01:58:03;;;;;;;1.90;1.70;;;4.70;99.90;;;;;;6312926;22;20220;-92
2022/02/26 02:00:35;;;;;;;3.27;1.77;;;4.60;99.90;;;;;;6317063;22;20586;-92
2022/02/26 02:03:07;;;;;;;2.50;1.63;;;4.50;99.90;;;;;;6315130;22;20163;-92
2022/02/26 02:05:39;;;;;;;4.17;1.77;;;4.40;99.90;;;;;;6316143;22;20277;-92
2022/02/26 02:08:12;;;;;;;2.03;1.40;;;4.30;99.90;;;;;;6314077;22;20187;-92
2022/02/26 02:10:45;;;;;;;1.80;1.40;;;4.20;99.90;;;;;;6313498;22;20248;-92
2022/02/26 02:13:18;;;;;;;1.93;1.20;;;4.10;99.90;;;;;;6313927;22;20636;-91
2022/02/26 02:15:50;;;;;;;4.33;1.30;;;4.00;99.90;;;;;;6316540;22;20620;-91
2022/02/26 02:18:21;;;;;;;1.77;1.27;;;3.90;99.90;;;;;;6313799;22;20174;-92
2022/02/26 02:20:53;;;;;;;2.10;1.50;;;3.90;99.90;;;;;;6320803;22;20209;-92
2022/02/26 02:23:27;;;;;;;2.40;1.60;;;3.80;99.90;;;;;;6327473;22;20167;-91
2022/02/26 02:25:58;;;;;;;2.00;1.43;;;3.70;99.90;;;;;;6315274;22;20194;-92
2022/02/26 02:28:34;;;;;;;2.50;1.57;;;3.60;99.90;;;;;;6313878;22;20166;-91
2022/02/26 02:31:05;;;;;;;5.23;1.87;;;3.50;99.90;;;;;;6320477;22;20182;-92
2022/02/26 02:33:41;;;;;;;3.13;1.77;;;3.50;99.90;;;;;;6302650;22;20155;-91
2022/02/26 02:36:13;;;;;;;1.80;1.53;;;3.40;99.90;;;;;;6326733;22;20164;-91
2022/02/26 02:38:47;;;;;;;3.63;2.10;;;3.40;99.90;;;;;;6329887;22;20166;-90
2022/02/26 02:41:21;;;;;;;4.00;2.00;;;3.30;99.90;;;;;;6333443;22;20267;-91
2022/02/26 02:43:53;;;;;;;3.33;1.83;;;3.30;99.90;;;;;;6332249;22;20186;-92
2022/02/26 02:46:26;;;;;;;3.17;1.77;;;3.20;99.90;;;;;;6329036;22;20166;-92
2022/02/26 02:48:58;;;;;;;2.30;2.03;;;3.20;99.90;;;;;;6327887;22;20189;-92
2022/02/26 02:51:30;;;;;;;3.63;1.77;;;3.10;99.90;;;;;;6327273;22;20179;-93
2022/02/26 02:54:03;;;;;;;2.10;1.60;;;3.10;99.90;;;;;;6328851;22;20170;-93
2022/02/26 02:56:34;;;;;;;3.03;1.50;;;3.00;99.90;;;;;;6329053;22;20177;-92
2022/02/26 02:59:05;;;;;;;3.47;1.80;;;3.00;99.90;;;;;;6300119;22;20178;-92
2022/02/26 03:01:37;;;;;;;2.73;1.90;;;3.00;99.90;;;;;;6326402;22;20194;-91
2022/02/26 03:04:08;;;;;;;2.60;1.80;;;2.90;99.90;;;;;;6326206;22;20163;-92
2022/02/26 03:06:40;;;;;;;5.67;2.13;;;2.90;99.90;;;;;;6327011;22;20178;-90
2022/02/26 03:09:13;;;;;;;4.50;2.33;;;2.80;99.90;;;;;;6326901;22;20178;-92
2022/02/26 03:11:45;;;;;;;6.67;2.37;;;2.80;99.90;;;;;;6327111;22;20236;-93
2022/02/26 03:14:17;;;;;;;4.47;2.17;;;2.80;99.90;;;;;;6328411;22;20167;-93
2022/02/26 03:16:49;;;;;;;2.60;1.83;;;2.80;99.90;;;;;;6302025;22;20166;-93
2022/02/26 03:19:21;;;;;;;5.57;2.50;;;2.80;99.90;;;;;;6329434;22;20205;-92
2022/02/26 03:21:55;;;;;;;6.13;2.03;;;2.80;99.90;;;;;;6329629;22;20247;-92
2022/02/26 03:24:29;;;;;;;4.87;1.93;;;2.90;99.90;;;;;;6306606;22;20162;-90
2022/02/26 03:29:43;;;;;;;2.77;1.77;;;2.90;99.90;;;;;;6332230;22;20603;-94
2022/02/26 03:34:50;;;;;;;4.10;1.77;;;2.90;99.90;;;;;;6328303;22;20216;-91
2022/02/26 03:37:22;;;;;;;2.30;1.70;;;3.00;99.90;;;;;;6325713;22;20174;-92
2022/02/26 03:39:57;;;;;;;3.07;1.50;;;2.90;99.90;;;;;;6303496;22;20454;-92
2022/02/26 03:42:28;;;;;;;2.13;1.50;;;3.00;99.90;;;;;;6332576;22;20189;-92
2022/02/26 03:50:17;;;;;;;2.10;1.43;;;3.00;99.90;;;;;;6334997;22;20200;-92
2022/02/26 03:52:49;;;;;;;2.50;1.60;;;3.00;99.90;;;;;;6328026;22;20253;-92
2022/02/26 03:55:22;;;;;;;4.83;1.83;;;2.90;99.90;;;;;;6321032;22;20166;-92
2022/02/26 03:57:53;;;;;;;2.93;1.67;;;2.90;99.90;;;;;;6325208;22;20178;-92
2022/02/26 04:00:26;;;;;;;3.03;1.80;;;2.80;99.90;;;;;;6326596;22;20186;-93
2022/02/26 04:02:58;;;;;;;1.90;1.67;;;2.80;99.90;;;;;;6325339;22;20245;-93
2022/02/26 04:05:30;;;;;;;2.07;1.60;;;2.80;99.90;;;;;;6331080;22;20190;-92
2022/02/26 04:08:01;;;;;;;3.27;1.83;;;2.80;99.90;;;;;;6305648;22;20162;-92
2022/02/26 04:10:36;;;;;;;2.60;1.67;;;2.80;99.90;;;;;;6326837;22;20180;-92
2022/02/26 04:13:07;;;;;;;2.00;1.80;;;2.80;99.90;;;;;;6325627;22;20189;-93
2022/02/26 04:15:39;;;;;;;2.00;1.80;;;2.80;99.90;;;;;;6325022;22;20194;-93
2022/02/26 04:18:10;;;;;;;4.47;2.00;;;2.80;99.90;;;;;;6320995;22;20179;-92
2022/02/26 04:20:41;;;;;;;7.50;2.40;;;2.90;99.90;;;;;;6323719;22;20198;-90
2022/02/26 04:23:12;;;;;;;6.57;2.17;;;2.90;99.90;;;;;;6298972;22;20170;-92
2022/02/26 04:25:46;;;;;;;4.63;1.97;;;2.90;99.90;;;;;;6327648;22;20162;-92
2022/02/26 04:28:18;;;;;;;3.30;1.90;;;2.90;99.90;;;;;;6327173;22;20185;-92
2022/02/26 04:30:50;;;;;;;2.17;1.70;;;2.90;99.90;;;;;;6301648;22;20178;-93
2022/02/26 04:33:21;;;;;;;2.90;1.73;;;2.90;99.90;;;;;;6333089;22;20554;-93
2022/02/26 04:35:55;;;;;;;3.13;1.57;;;2.90;99.90;;;;;;6333521;22;20162;-91
2022/02/26 04:38:29;;;;;;;3.17;1.83;;;2.90;99.90;;;;;;6328316;22;20169;-92
2022/02/26 04:41:03;;;;;;;3.07;1.93;;;2.80;99.90;;;;;;6329828;22;20193;-93
2022/02/26 04:43:36;;;;;;;2.33;1.93;;;2.80;99.90;;;;;;6321030;22;20193;-92
2022/02/26 04:46:08;;;;;;;3.13;2.20;;;2.80;99.90;;;;;;6332818;22;20163;-93
2022/02/26 04:48:39;;;;;;;6.27;2.17;;;2.70;99.90;;;;;;6332451;22;20155;-88
2022/02/26 04:51:11;;;;;;;3.03;2.20;;;2.70;99.90;;;;;;6334041;22;20159;-92
2022/02/26 04:53:42;;;;;;;4.37;1.87;;;2.60;99.90;;;;;;6324696;22;20243;-91
2022/02/26 04:56:16;;;;;;;3.50;2.30;;;2.60;99.90;;;;;;6318263;22;20224;-93
2022/02/26 04:58:48;;;;;;;4.30;2.17;;;2.50;99.90;;;;;;6324875;22;20211;-94
2022/02/26 05:01:18;;;;;;;3.07;1.87;;;2.50;99.90;;;;;;6319624;22;20194;-92
2022/02/26 05:03:49;;;;;;;2.90;1.80;;;2.40;99.90;;;;;;6314211;22;20509;-92
2022/02/26 05:06:20;;;;;;;9.27;2.53;;;2.30;99.90;;;;;;6312966;22;20174;-92
2022/02/26 05:08:51;;;;;;;2.07;1.50;;;2.20;99.90;;;;;;6317912;22;20174;-92
2022/02/26 05:11:24;;;;;;;3.23;2.07;;;2.10;99.90;;;;;;6312036;22;20186;-92
2022/02/26 05:13:55;;;;;;;5.03;2.23;;;2.00;99.90;;;;;;6312917;22;20533;-93
2022/02/26 05:16:26;;;;;;;4.23;2.20;;;1.90;99.90;;;;;;6319715;22;20163;-92
2022/02/26 05:18:57;;;;;;;3.43;1.77;;;1.90;99.90;;;;;;6293989;22;20170;-95
2022/02/26 05:21:28;;;;;;;3.03;2.13;;;1.80;99.90;;;;;;6333575;22;20182;-92
2022/02/26 05:23:59;;;;;;;3.63;2.07;;;1.70;99.90;;;;;;6334388;22;20154;-93
2022/02/26 05:26:32;;;;;;;3.17;1.70;;;1.60;99.90;;;;;;6309082;22;20165;-92
2022/02/26 05:29:04;;;;;;;2.20;1.63;;;1.60;99.90;;;;;;6307314;22;20183;-92
2022/02/26 05:31:36;;;;;;;3.17;2.00;;;1.50;99.90;;;;;;6334275;22;20155;-91
2022/02/26 05:34:08;;;;;;;2.97;1.90;;;1.50;99.90;;;;;;6335207;22;20632;-92
2022/02/26 05:36:39;;;;;;;3.93;2.43;;;1.50;99.90;;;;;;6329626;22;20174;-92
2022/02/26 05:39:12;;;;;;;4.50;3.00;;;1.50;99.90;;;;;;6327134;22;20247;-92
2022/02/26 05:41:46;;;;;;;4.90;3.33;;;1.50;99.90;;;;;;6326243;22;20187;-93
2022/02/26 05:44:17;;;;;;;7.83;5.10;;;1.40;99.90;;;;;;6328851;22;20170;-92
2022/02/26 05:46:48;;;;;;;5.87;4.17;;;1.40;99.90;;;;;;6298306;22;20181;-93
2022/02/26 05:49:24;;;;;;;10.10;6.40;;;1.40;99.90;;;;;;6324597;22;20194;-94
2022/02/26 05:51:56;;;;;;;10.47;6.40;;;1.40;99.90;;;;;;6305347;22;20227;-93
2022/02/26 05:54:29;;;;;;;5.93;4.50;;;1.30;99.90;;;;;;6333703;22;20173;-92
2022/02/26 05:57:03;;;;;;;6.77;3.50;;;1.20;99.90;;;;;;6330934;22;20192;-93
2022/02/26 05:59:34;;;;;;;5.67;3.10;;;1.10;99.90;;;;;;6335693;22;20175;-92
2022/02/26 06:02:05;;;;;;;5.03;2.73;;;1.10;99.90;;;;;;6335939;22;20196;-92
2022/02/26 06:04:37;;;;;;;4.17;2.77;;;1.00;99.90;;;;;;6335509;22;20174;-93
2022/02/26 06:07:12;;;;;;;2.90;2.43;;;0.90;99.90;;;;;;6326456;22;20177;-94
2022/02/26 06:09:43;;;;;;;5.90;2.87;;;0.90;99.90;;;;;;6330718;22;20179;-93
2022/02/26 06:12:17;;;;;;;3.60;2.50;;;0.80;99.90;;;;;;6330467;22;20167;-93
2022/02/26 06:14:48;;;;;;;6.17;3.60;;;0.70;99.90;;;;;;6324248;22;20175;-92
2022/02/26 06:17:23;;;;;;;4.87;3.57;;;0.70;99.90;;;;;;6325573;22;20169;-91
2022/02/26 06:19:54;;;;;;;4.07;2.37;;;0.70;99.90;;;;;;6331148;22;20162;-93
2022/02/26 06:22:25;;;;;;;5.27;2.67;;;0.60;99.90;;;;;;6326525;22;20191;-94
2022/02/26 06:24:57;;;;;;;5.80;2.50;;;0.60;99.90;;;;;;6323628;22;20175;-92
2022/02/26 06:27:31;;;;;;;3.90;2.53;;;0.60;99.90;;;;;;6322420;22;20193;-93
2022/02/26 06:30:03;;;;;;;5.63;2.57;;;0.50;99.90;;;;;;6319086;22;20178;-94
2022/02/26 06:32:34;;;;;;;2.90;2.40;;;0.50;99.90;;;;;;6318429;22;20166;-94
2022/02/26 06:35:06;;;;;;;3.23;2.23;;;0.50;99.90;;;;;;6316840;22;20223;-93
2022/02/26 06:37:38;;;;;;;3.47;2.43;;;0.50;99.90;;;;;;6319634;22;21051;-93
2022/02/26 06:40:10;;;;;;;4.23;3.07;;;0.40;99.90;;;;;;6323001;22;20179;-94
2022/02/26 06:42:43;;;;;;;4.03;2.67;;;0.40;99.90;;;;;;6318541;22;20204;-94
2022/02/26 06:45:14;;;;;;;3.70;2.43;;;0.30;99.90;;;;;;6313123;22;20176;-94
2022/02/26 06:47:45;;;;;;;5.33;3.13;;;0.30;99.90;;;;;;6317354;22;20179;-93
2022/02/26 06:50:16;;;;;;;4.93;3.57;;;0.30;99.90;;;;;;6314270;22;20182;-93
2022/02/26 06:52:47;;;;;;;16.43;9.73;;;0.30;99.90;;;;;;6315465;22;20234;-93
2022/02/26 06:55:18;;;;;;;14.80;10.03;;;0.20;99.90;;;;;;6315755;22;20178;-93
2022/02/26 06:57:51;;;;;;;15.60;9.87;;;0.20;99.90;;;;;;6316787;22;20196;-95
2022/02/26 07:00:23;;;;;;;11.20;6.93;;;0.20;99.90;;;;;;6329028;22;20158;-94
2022/02/26 07:02:54;;;;;;;8.10;5.40;;;0.20;99.90;;;;;;6332430;22;20198;-93
2022/02/26 07:05:26;;;;;;;7.70;3.90;;;0.20;99.90;;;;;;6332187;22;20181;-94
2022/02/26 07:07:57;;;;;;;4.53;3.00;;;0.20;99.90;;;;;;6291840;22;20269;-94
2022/02/26 07:10:28;;;;;;;3.07;2.60;;;0.20;99.90;;;;;;6316928;22;20192;-94
2022/02/26 07:13:01;;;;;;;5.07;2.27;;;0.10;99.90;;;;;;6315753;22;20178;-93
2022/02/26 07:15:33;;;;;;;4.43;2.20;;;0.10;99.90;;;;;;6314860;22;20257;-94
2022/02/26 07:18:05;;;;;;;4.00;2.17;;;0.10;99.90;;;;;;6313027;22;20261;-94
2022/02/26 07:20:37;;;;;;;4.57;2.10;;;0.00;99.90;;;;;;6313572;22;20174;-92
2022/02/26 07:23:08;;;;;;;3.30;2.43;;;0.00;99.90;;;;;;6315599;22;20908;-94
2022/02/26 07:25:42;;;;;;;2.77;1.73;;;0.00;99.90;;;;;;6314023;22;20266;-92
2022/02/26 07:28:17;;;;;;;2.80;1.80;;;0.10;99.90;;;;;;6319740;22;20219;-92
2022/02/26 07:30:53;;;;;;;4.40;2.43;;;0.10;99.90;;;;;;6324444;22;20203;-95
2022/02/26 07:33:24;;;;;;;4.77;2.70;;;0.10;99.90;;;;;;6319873;22;20211;-92
2022/02/26 07:35:56;;;;;;;5.00;2.57;;;0.10;99.90;;;;;;6325511;22;20175;-93
2022/02/26 07:38:27;;;;;;;5.03;3.03;;;0.20;99.90;;;;;;6286142;22;20188;-93
2022/02/26 07:41:00;;;;;;;3.20;2.23;;;0.20;99.90;;;;;;6312339;22;20529;-95
2022/02/26 07:43:33;;;;;;;3.77;2.27;;;0.30;99.90;;;;;;6312273;22;20244;-94
2022/02/26 07:46:05;;;;;;;2.47;2.03;;;0.40;99.90;;;;;;6318269;22;20185;-93
2022/02/26 07:48:37;;;;;;;4.23;2.10;;;0.40;99.90;;;;;;6310467;22;20205;-92
2022/02/26 07:51:14;;;;;;;3.50;2.30;;;0.40;99.90;;;;;;6311715;22;20213;-94
2022/02/26 07:53:46;;;;;;;4.17;2.70;;;0.50;99.90;;;;;;6284884;22;20201;-93
2022/02/26 07:56:17;;;;;;;2.50;2.10;;;0.50;99.90;;;;;;6311659;22;20189;-93
2022/02/26 07:58:54;;;;;;;3.77;2.33;;;0.50;99.90;;;;;;6311306;22;20221;-94
2022/02/26 08:01:26;;;;;;;2.60;2.13;;;0.50;99.90;;;;;;6311643;22;20196;-94
2022/02/26 08:03:57;;;;;;;3.23;2.33;;;0.60;99.90;;;;;;6312704;22;20194;-92
2022/02/26 08:06:28;;;;;;;2.40;2.03;;;0.70;99.90;;;;;;6316141;22;20174;-93
2022/02/26 08:08:59;;;;;;;2.70;1.90;;;0.70;99.90;;;;;;6311644;22;20204;-93
2022/02/26 08:11:31;;;;;;;2.57;1.93;;;0.70;99.90;;;;;;6312584;22;20167;-93
2022/02/26 08:14:04;;;;;;;2.40;2.03;;;0.70;99.90;;;;;;6312442;22;20174;-92
2022/02/26 08:16:35;;;;;;;3.80;2.37;;;0.80;99.90;;;;;;6323614;22;20177;-91
2022/02/26 08:19:06;;;;;;;3.27;2.00;;;0.90;99.90;;;;;;6292170;22;20229;-92
2022/02/26 08:21:38;;;;;;;3.47;1.87;;;1.10;99.90;;;;;;6316797;22;20189;-91
2022/02/26 08:24:11;;;;;;;2.77;1.93;;;1.10;99.90;;;;;;6316562;22;20191;-93
2022/02/26 08:26:42;;;;;;;3.60;2.17;;;1.10;99.90;;;;;;6315216;22;20162;-94
2022/02/26 08:29:15;;;;;;;3.57;2.30;;;1.10;99.90;;;;;;6310627;22;20175;-93
2022/02/26 08:31:46;;;;;;;4.40;2.00;;;1.00;99.90;;;;;;6316299;22;20166;-93
2022/02/26 08:34:18;;;;;;;3.47;2.33;;;1.00;99.90;;;;;;6322656;22;20170;-92
2022/02/26 08:36:48;;;;;;;3.53;2.27;;;0.90;99.90;;;;;;6311680;22;20170;-95
2022/02/26 08:39:19;;;;;;;4.03;2.80;;;0.80;99.90;;;;;;6311346;22;20655;-93
2022/02/26 08:41:51;;;;;;;3.37;2.30;;;0.80;99.90;;;;;;6321219;22;20171;-93
2022/02/26 08:44:24;;;;;;;3.80;2.50;;;0.80;99.90;;;;;;6319581;22;20222;-93
2022/02/26 08:46:55;;;;;;;4.10;2.60;;;0.80;99.90;;;;;;6284186;22;20274;-93
2022/02/26 08:49:27;;;;;;;2.27;2.03;;;0.70;99.90;;;;;;6311409;22;20182;-93
2022/02/26 08:51:58;;;;;;;3.67;2.10;;;0.70;99.90;;;;;;6310883;22;20178;-93
2022/02/26 08:54:33;;;;;;;2.53;1.87;;;0.60;99.90;;;;;;6311038;22;20166;-95
2022/02/26 08:57:04;;;;;;;2.80;2.17;;;0.50;99.90;;;;;;6286930;22;20179;-93
2022/02/26 08:59:37;;;;;;;3.13;2.40;;;0.50;99.90;;;;;;6313329;22;20213;-94
2022/02/26 09:02:10;;;;;;;4.47;1.97;;;0.50;99.90;;;;;;6289245;22;20211;-92
2022/02/26 09:04:41;;;;;;;3.60;2.10;;;0.50;99.90;;;;;;6313692;22;20216;-92
2022/02/26 09:07:12;;;;;;;3.83;2.47;;;0.50;99.90;;;;;;6309611;22;20210;-92
2022/02/26 09:09:44;;;;;;;2.80;2.13;;;0.40;99.90;;;;;;6313599;22;20620;-92
2022/02/26 09:12:15;;;;;;;3.70;2.20;;;0.40;99.90;;;;;;6313023;22;20178;-92
2022/02/26 09:14:48;;;;;;;4.30;2.67;;;0.40;99.90;;;;;;6314725;22;20201;-93
2022/02/26 09:17:19;;;;;;;3.00;2.23;;;0.30;99.90;;;;;;6315175;22;20169;-92
2022/02/26 09:19:50;;;;;;;4.20;2.70;;;0.30;99.90;;;;;;6315245;22;20469;-92
2022/02/26 09:22:21;;;;;;;4.50;2.70;;;0.40;99.90;;;;;;6288237;22;20178;-93
2022/02/26 09:24:53;;;;;;;6.13;2.03;;;0.40;99.90;;;;;;6316444;22;20215;-94
2022/02/26 09:27:24;;;;;;;2.50;1.87;;;0.40;99.90;;;;;;6311425;22;20624;-93
2022/02/26 09:29:57;;;;;;;3.93;2.13;;;0.40;99.90;;;;;;6312593;22;20236;-92
2022/02/26 09:32:31;;;;;;;3.30;1.93;;;0.40;99.90;;;;;;6315068;22;20169;-93
2022/02/26 09:35:01;;;;;;;2.57;1.93;;;0.40;99.90;;;;;;6315574;22;20186;-92
2022/02/26 09:37:32;;;;;;;4.40;1.83;;;0.30;99.90;;;;;;6313772;22;20185;-93
2022/02/26 09:40:03;;;;;;;3.77;2.53;;;0.40;99.90;;;;;;6317863;22;20155;-95
2022/02/26 09:42:36;;;;;;;7.53;2.60;;;0.40;99.90;;;;;;6312878;22;20182;-93
2022/02/26 09:45:11;;;;;;;5.67;2.77;;;0.40;99.90;;;;;;6313387;22;20187;-94
2022/02/26 09:47:43;;;;;;;4.37;2.70;;;0.40;99.90;;;;;;6315135;22;20603;-93
2022/02/26 09:50:14;;;;;;;3.47;2.23;;;0.30;99.90;;;;;;6313493;22;20193;-93
2022/02/26 09:52:49;;;;;;;3.73;2.20;;;0.30;99.90;;;;;;6313968;22;20167;-94
2022/02/26 09:55:23;;;;;;;3.93;2.30;;;0.30;99.90;;;;;;6314614;22;20527;-94
2022/02/26 09:57:54;;;;;;;3.70;2.07;;;0.30;99.90;;;;;;6317884;22;20177;-93
2022/02/26 10:00:27;;;;;;;5.40;2.20;;;0.30;99.90;;;;;;6315243;22;20185;-94
2022/02/26 10:02:59;;;;;;;3.10;2.40;;;0.30;99.90;;;;;;6315924;22;20224;-92
2022/02/26 10:05:32;;;;;;;3.20;1.90;;;0.30;99.90;;;;;;6311576;22;20205;-93
2022/02/26 10:08:19;;;;;;;2.27;1.67;;;0.30;99.90;;;;;;6312851;22;20190;-93
2022/02/26 10:10:54;;;;;;;2.33;1.90;;;0.30;99.90;;;;;;6313163;22;20186;-94
2022/02/26 10:13:27;;;;;;;2.83;1.90;;;0.20;99.90;;;;;;6287698;22;20160;-94
2022/02/26 10:16:00;;;;;;;3.43;1.90;;;0.20;99.90;;;;;;6314004;22;20238;-93
2022/02/26 10:18:32;;;;;;;4.27;1.93;;;0.20;99.90;;;;;;6313903;22;20678;-93
2022/02/26 10:21:04;;;;;;;2.73;2.10;;;0.10;99.90;;;;;;6313297;22;20178;-93
2022/02/26 10:23:45;;;;;;;2.30;1.80;;;0.20;99.90;;;;;;6313465;22;20232;-93
2022/02/26 10:26:16;;;;;;;3.47;1.80;;;0.20;99.90;;;;;;6313966;22;20169;-93
2022/02/26 10:28:49;;;;;;;3.20;1.83;;;0.20;99.90;;;;;;6324459;22;20225;-93
2022/02/26 10:31:21;;;;;;;3.63;1.97;;;0.20;99.90;;;;;;6335550;22;20166;-93
2022/02/26 10:33:57;;;;;;;2.80;2.17;;;0.10;99.90;;;;;;6334712;22;20150;-92
2022/02/26 10:36:27;;;;;;;3.23;1.90;;;0.10;99.90;;;;;;6334034;22;20220;-92
2022/02/26 10:38:59;;;;;;;3.03;1.83;;;0.20;99.90;;;;;;6333973;22;20185;-92
2022/02/26 10:41:30;;;;;;;2.93;1.83;;;0.10;99.90;;;;;;6306864;22;20179;-92
2022/02/26 10:44:03;;;;;;;3.30;1.67;;;0.10;99.90;;;;;;6333614;22;20200;-92
2022/02/26 10:46:35;;;;;;;5.10;1.83;;;0.10;99.90;;;;;;6334405;22;20190;-94
2022/02/26 10:49:09;;;;;;;3.53;1.53;;;0.10;99.90;;;;;;6331994;22;20173;-94
2022/02/26 10:51:42;;;;;;;4.03;2.03;;;0.10;99.90;;;;;;6334759;22;20177;-93
2022/02/26 10:54:22;;;;;;;3.43;2.13;;;0.10;99.90;;;;;;6335793;22;20155;-95
2022/02/26 10:56:54;;;;;;;2.23;1.70;;;0.10;99.90;;;;;;6334828;22;20213;-94
2022/02/26 10:59:30;;;;;;;2.70;1.73;;;0.10;99.90;;;;;;6334672;22;20161;-92
2022/02/26 11:02:07;;;;;;;1.60;1.50;;;0.10;99.90;;;;;;6330149;22;20189;-93
2022/02/26 11:04:39;;;;;;;3.93;2.20;;;0.10;99.90;;;;;;6330999;22;20203;-93
2022/02/26 11:07:11;;;;;;;2.80;1.80;;;0.10;99.90;;;;;;6333091;22;20161;-93
2022/02/26 11:09:45;;;;;;;2.87;1.90;;;0.10;99.90;;;;;;6334281;22;20170;-92
2022/02/26 11:12:18;;;;;;;2.67;1.43;;;0.00;99.90;;;;;;6334354;22;20162;-92
2022/02/26 11:14:53;;;;;;;6.27;1.67;;;0.00;99.90;;;;;;6330360;22;20271;-92
2022/02/26 11:17:27;;;;;;;3.37;1.43;;;0.00;99.90;;;;;;6328945;22;20187;-91
2022/02/26 11:20:03;;;;;;;2.20;1.47;;;0.10;99.90;;;;;;6333837;22;20190;-93
2022/02/26 11:22:34;;;;;;;2.10;1.50;;;0.10;99.90;;;;;;6334565;22;20181;-93
2022/02/26 11:25:06;;;;;;;2.87;1.93;;;0.10;99.90;;;;;;6334277;22;20189;-93
2022/02/26 11:27:38;;;;;;;1.93;1.50;;;0.10;99.90;;;;;;6329074;22;20234;-93
2022/02/26 11:30:11;;;;;;;2.60;1.40;;;0.10;99.90;;;;;;6323317;22;20169;-93
2022/02/26 11:32:47;;;;;;;2.17;1.87;;;0.10;99.90;;;;;;6293257;22;20268;-91
2022/02/26 11:35:19;;;;;;;2.23;1.47;;;0.00;99.90;;;;;;6318109;22;20190;-93
2022/02/26 11:37:52;;;;;;;3.87;2.00;;;-0.10;99.90;;;;;;6317597;22;20185;-94
2022/02/26 11:40:24;;;;;;;3.30;2.00;;;-0.10;99.90;;;;;;6317626;22;20176;-95
2022/02/26 11:42:56;;;;;;;2.97;1.70;;;-0.20;99.90;;;;;;6316038;22;20174;-92
2022/02/26 11:45:30;;;;;;;3.53;1.97;;;-0.30;99.90;;;;;;6314411;22;20205;-92
2022/02/26 11:48:03;;;;;;;2.10;1.47;;;-0.30;99.90;;;;;;6312197;22;20187;-94
2022/02/26 11:50:37;;;;;;;3.20;1.70;;;-0.30;99.90;;;;;;6313548;22;20196;-94
2022/02/26 11:53:13;;;;;;;2.07;1.50;;;-0.20;99.90;;;;;;6287360;22;20206;-94
2022/02/26 11:55:47;;;;;;;3.03;1.47;;;-0.30;99.90;;;;;;6313776;22;20487;-93
2022/02/26 11:58:20;;;;;;;2.63;1.50;;;-0.30;99.90;;;;;;6331054;22;20174;-94
2022/02/26 12:00:53;;;;;;;2.90;1.70;;;-0.30;99.90;;;;;;6333856;22;20154;-94
2022/02/26 12:03:34;;;;;;;3.80;1.57;;;-0.30;99.90;;;;;;6283628;22;20204;-94
2022/02/26 12:06:39;;;;;;;3.80;1.90;;;-0.30;99.90;;;;;;6334675;22;20182;-92
2022/02/26 12:09:15;;;;;;;3.70;1.40;;;-0.20;99.90;;;;;;6303152;22;20184;-94
2022/02/26 12:11:48;;;;;;;1.57;1.40;;;-0.20;99.90;;;;;;6315707;22;20219;-92
2022/02/26 12:14:25;;;;;;;2.87;1.70;;;-0.20;99.90;;;;;;6312809;22;20612;-93
2022/02/26 12:17:03;;;;;;;1.83;1.53;;;-0.20;99.90;;;;;;6313332;22;20595;-92
2022/02/26 12:19:47;;;;;;;2.30;1.80;;;-0.20;99.90;;;;;;6312628;22;20238;-94
2022/02/26 12:22:18;;;;;;;2.90;1.70;;;-0.20;99.90;;;;;;6314142;22;20162;-93
2022/02/26 12:24:51;;;;;;;1.93;1.47;;;-0.20;99.90;;;;;;6286465;22;20208;-93
2022/02/26 12:27:33;;;;;;;1.83;1.57;;;-0.20;99.90;;;;;;6312921;22;20193;-93
2022/02/26 12:30:10;;;;;;;2.23;1.50;;;-0.20;99.90;;;;;;6314385;22;20200;-92
2022/02/26 12:32:53;;;;;;;3.10;1.40;;;-0.20;99.90;;;;;;6324258;22;20200;-94
2022/02/26 12:35:34;;;;;;;1.90;1.70;;;-0.20;99.90;;;;;;6291934;22;20185;-93
2022/02/26 12:38:21;;;;;;;2.40;1.50;;;-0.20;99.90;;;;;;6315705;22;20193;-92
2022/02/26 12:40:52;;;;;;;3.77;1.60;;;-0.10;99.90;;;;;;6315213;22;20184;-92
2022/02/26 12:43:30;;;;;;;3.07;1.73;;;-0.10;99.90;;;;;;6320671;22;20197;-92
2022/02/26 12:46:04;;;;;;;2.73;1.67;;;-0.10;99.90;;;;;;6334071;22;20264;-93
2022/02/26 12:48:35;;;;;;;2.93;1.50;;;-0.10;99.90;;;;;;6331555;22;20180;-92
2022/02/26 12:51:11;;;;;;;3.17;1.70;;;-0.20;99.90;;;;;;6325022;22;20183;-93
2022/02/26 12:53:42;;;;;;;1.70;1.40;;;-0.10;99.90;;;;;;6316063;22;20453;-92
2022/02/26 12:56:13;;;;;;;1.87;1.50;;;0.00;99.90;;;;;;6324662;22;20564;-92
2022/02/26 12:58:45;;;;;;;2.13;1.67;;;0.00;99.90;;;;;;6324958;22;20156;-92
2022/02/26 13:01:27;;;;;;;2.40;1.60;;;0.00;99.90;;;;;;6269249;22;20190;-93
2022/02/26 13:03:58;;;;;;;1.60;1.30;;;0.00;99.90;;;;;;6314743;22;20241;-93
2022/02/26 13:06:31;;;;;;;2.63;1.40;;;0.00;99.90;;;;;;6322809;22;20197;-93
2022/02/26 13:09:02;;;;;;;2.30;1.60;;;-0.10;99.90;;;;;;6326328;22;20177;-92
2022/02/26 13:11:33;;;;;;;1.90;1.40;;;-0.20;99.90;;;;;;6330117;22;20168;-94
2022/02/26 13:14:08;;;;;;;3.17;1.70;;;-0.20;99.90;;;;;;6317365;22;20177;-92
2022/02/26 13:16:42;;;;;;;2.37;1.70;;;-0.30;99.90;;;;;;6312490;22;20173;-93
2022/02/26 13:19:16;;;;;;;2.20;1.37;;;-0.40;99.90;;;;;;6285932;22;20521;-93
2022/02/26 13:21:48;;;;;;;1.40;1.30;;;-0.40;99.90;;;;;;6311393;22;20175;-95
2022/02/26 13:24:19;;;;;;;3.67;1.60;;;-0.50;99.90;;;;;;6310863;22;20181;-95
2022/02/26 13:26:51;;;;;;;3.10;1.80;;;-0.50;99.90;;;;;;6309457;22;20202;-95
2022/02/26 13:29:26;;;;;;;3.40;1.87;;;-0.50;99.90;;;;;;6309646;22;20173;-93
2022/02/26 13:31:57;;;;;;;1.90;1.50;;;-0.50;99.90;;;;;;6311017;22;20166;-93
2022/02/26 13:34:29;;;;;;;2.07;1.67;;;-0.50;99.90;;;;;;6312032;22;20243;-93
2022/02/26 13:37:01;;;;;;;1.57;1.47;;;-0.50;99.90;;;;;;6310229;22;20192;-94
2022/02/26 13:39:32;;;;;;;2.73;1.97;;;-0.50;99.90;;;;;;6311672;22;20167;-93